createdAt,value
2023-04-02T00:00:15.155Z,5.37
2023-04-02T00:02:49.560Z,5.74
2023-04-02T00:05:30.761Z,5.44
2023-04-02T00:08:06.456Z,5.10
2023-04-02T00:10:34.979Z,5.85
2023-04-02T00:13:03.853Z,5.79
2023-04-02T00:15:30.857Z,5.89
2023-04-02T00:17:59.466Z,5.90
2023-04-02T00:20:27.829Z,6.05
2023-04-02T00:22:56.842Z,6.46
2023-04-02T00:25:26.623Z,5.88
2023-04-02T00:27:53.365Z,5.83
2023-04-02T00:30:20.406Z,5.74
2023-04-02T00:32:48.288Z,5.48
2023-04-02T00:35:21.246Z,5.84
2023-04-02T00:37:49.409Z,5.80
2023-04-02T00:40:26.477Z,5.79
2023-04-02T00:42:54.397Z,5.77
2023-04-02T00:45:25.911Z,5.55
2023-04-02T00:47:53.118Z,6.03
2023-04-02T00:50:34.865Z,6.31
2023-04-02T00:53:06.140Z,5.60
2023-04-02T00:55:40.486Z,5.17
2023-04-02T00:58:43.368Z,5.31
2023-04-02T01:01:16.939Z,6.20
2023-04-02T01:03:44.579Z,5.99
2023-04-02T01:06:19.333Z,6.10
2023-04-02T01:08:48.896Z,5.54
2023-04-02T01:11:21.975Z,5.79
2023-04-02T01:13:58.194Z,6.13
2023-04-02T01:16:24.977Z,7.08
2023-04-02T01:18:51.601Z,6.45
2023-04-02T01:21:33.483Z,6.00
2023-04-02T01:24:07.393Z,5.54
2023-04-02T01:26:53.473Z,6.70
2023-04-02T01:29:38.553Z,6.37
2023-04-02T01:32:11.037Z,6.37
2023-04-02T01:34:38.412Z,6.59
2023-04-02T01:37:24.467Z,5.93
2023-04-02T01:40:11.381Z,5.91
2023-04-02T01:42:41.973Z,6.33
2023-04-02T01:45:14.303Z,6.51
2023-04-02T01:47:41.611Z,6.09
2023-04-02T01:50:11.452Z,6.65
2023-04-02T01:52:42.484Z,7.02
2023-04-02T01:55:10.505Z,6.07
2023-04-02T01:57:37.686Z,6.81
2023-04-02T02:00:10.602Z,6.62
2023-04-02T02:02:37.677Z,5.94
2023-04-02T02:05:05.243Z,5.74
2023-04-02T02:07:32.400Z,6.47
2023-04-02T02:09:59.852Z,6.24
2023-04-02T02:12:26.705Z,6.11
2023-04-02T02:14:53.457Z,6.71
2023-04-02T02:17:24.084Z,6.36
2023-04-02T02:19:53.969Z,6.48
2023-04-02T02:22:32.668Z,6.50
2023-04-02T02:25:00.983Z,6.38
2023-04-02T02:27:28.904Z,6.30
2023-04-02T02:30:00.863Z,6.50
2023-04-02T02:32:30.379Z,6.63
2023-04-02T02:35:03.621Z,6.96
2023-04-02T02:37:35.810Z,6.72
2023-04-02T02:40:05.553Z,6.25
2023-04-02T02:42:34.435Z,6.46
2023-04-02T02:45:04.153Z,6.93
2023-04-02T02:47:35.664Z,6.32
2023-04-02T02:50:31.549Z,6.73
2023-04-02T02:52:59.461Z,7.02
2023-04-02T02:55:34.430Z,6.72
2023-04-02T02:58:06.922Z,6.12
2023-04-02T03:00:35.543Z,6.47
2023-04-02T03:03:05.217Z,5.70
2023-04-02T03:05:32.045Z,6.52
2023-04-02T03:07:59.568Z,6.99
2023-04-02T03:10:29.587Z,6.83
2023-04-02T03:13:19.821Z,6.90
2023-04-02T03:15:59.025Z,6.80
2023-04-02T03:18:40.883Z,6.94
2023-04-02T03:21:22.759Z,7.52
2023-04-02T03:23:54.202Z,6.57
2023-04-02T03:26:32.760Z,7.20
2023-04-02T03:29:05.021Z,7.29
2023-04-02T03:31:37.915Z,7.48
2023-04-02T03:34:18.057Z,7.74
2023-04-02T03:36:52.176Z,7.79
2023-04-02T03:39:22.908Z,7.99
2023-04-02T03:41:50.037Z,7.51
2023-04-02T03:44:40.920Z,7.26
2023-04-02T03:47:18.878Z,7.97
2023-04-02T03:49:54.154Z,8.06
2023-04-02T03:52:24.918Z,7.90
2023-04-02T03:54:54.178Z,7.47
2023-04-02T03:57:42.338Z,7.79
2023-04-02T04:00:16.524Z,7.95
2023-04-02T04:02:45.798Z,7.59
2023-04-02T04:05:32.957Z,8.03
2023-04-02T04:08:05.002Z,7.42
2023-04-02T04:10:32.543Z,6.97
2023-04-02T04:13:06.251Z,7.46
2023-04-02T04:15:43.675Z,7.40
2023-04-02T04:18:34.753Z,7.63
2023-04-02T04:21:02.937Z,7.11
2023-04-02T04:23:32.677Z,7.58
2023-04-02T04:26:09.930Z,7.91
2023-04-02T04:28:42.881Z,6.52
2023-04-02T04:31:09.728Z,6.81
2023-04-02T04:33:42.038Z,7.38
2023-04-02T04:36:32.769Z,6.55
2023-04-02T04:39:01.098Z,6.58
2023-04-02T04:41:30.402Z,7.19
2023-04-02T04:44:15.536Z,7.52
2023-04-02T04:46:45.454Z,7.27
2023-04-02T04:49:17.104Z,6.47
2023-04-02T04:51:47.263Z,7.32
2023-04-02T04:54:15.520Z,7.37
2023-04-02T04:56:49.914Z,7.47
2023-04-02T04:59:19.519Z,7.50
2023-04-02T05:01:56.374Z,7.45
2023-04-02T05:04:37.567Z,7.25
2023-04-02T05:07:21.500Z,6.71
2023-04-02T05:09:53.993Z,7.67
2023-04-02T05:12:20.661Z,7.99
2023-04-02T05:14:59.603Z,6.79
2023-04-02T05:17:31.101Z,7.09
2023-04-02T05:20:17.083Z,7.25
2023-04-02T05:22:47.075Z,6.89
2023-04-02T05:25:17.853Z,7.54
2023-04-02T05:27:48.417Z,7.92
2023-04-02T05:30:24.026Z,7.96
2023-04-02T05:32:54.465Z,7.78
2023-04-02T05:35:22.996Z,7.64
2023-04-02T05:37:50.462Z,7.09
2023-04-02T05:40:24.436Z,7.32
2023-04-02T05:42:53.162Z,7.47
2023-04-02T05:45:23.229Z,7.65
2023-04-02T05:47:52.311Z,7.34
2023-04-02T05:50:22.945Z,7.97
2023-04-02T05:52:53.562Z,8.03
2023-04-02T05:55:37.433Z,8.04
2023-04-02T06:01:17.562Z,7.90
2023-04-02T06:03:46.223Z,6.75
2023-04-02T06:06:18.575Z,7.71
2023-04-02T06:08:51.023Z,8.23
2023-04-02T06:11:24.086Z,7.63
2023-04-02T06:13:52.109Z,8.11
2023-04-02T06:16:21.351Z,8.14
2023-04-02T06:18:48.553Z,8.57
2023-04-02T06:21:17.967Z,8.31
2023-04-02T06:23:52.683Z,8.55
2023-04-02T06:26:25.664Z,8.40
2023-04-02T06:29:01.787Z,8.40
2023-04-02T06:31:41.244Z,8.33
2023-04-02T06:34:11.511Z,7.90
2023-04-02T06:36:39.524Z,7.72
2023-04-02T06:39:09.089Z,7.56
2023-04-02T06:41:36.132Z,7.48
2023-04-02T06:44:06.972Z,8.13
2023-04-02T06:46:41.242Z,8.50
2023-04-02T06:49:13.512Z,8.00
2023-04-02T06:51:41.748Z,8.66
2023-04-02T06:54:14.574Z,8.14
2023-04-02T06:56:44.173Z,8.43
2023-04-02T06:59:12.777Z,7.66
2023-04-02T07:01:50.657Z,8.24
2023-04-02T07:04:19.088Z,7.49
2023-04-02T07:06:47.019Z,8.55
2023-04-02T07:09:14.061Z,8.63
2023-04-02T07:11:41.308Z,9.09
2023-04-02T07:14:09.766Z,8.91
2023-04-02T07:16:37.095Z,8.42
2023-04-02T07:19:05.004Z,7.67
2023-04-02T07:21:31.980Z,8.13
2023-04-02T07:23:58.729Z,7.57
2023-04-02T07:26:27.449Z,7.16
2023-04-02T07:28:58.323Z,6.79
2023-04-02T07:31:27.777Z,6.72
2023-04-02T07:33:55.908Z,7.43
2023-04-02T07:36:23.799Z,7.20
2023-04-02T07:38:52.923Z,7.83
2023-04-02T07:41:21.176Z,7.58
2023-04-02T07:43:49.999Z,8.24
2023-04-02T07:46:18.124Z,8.33
2023-04-02T07:48:45.962Z,8.54
2023-04-02T07:51:20.761Z,9.65
2023-04-02T07:53:50.676Z,8.71
2023-04-02T07:56:19.645Z,7.91
2023-04-02T07:58:46.671Z,8.19
2023-04-02T08:01:26.952Z,7.88
2023-04-02T08:03:54.927Z,8.35
2023-04-02T08:06:22.608Z,9.11
2023-04-02T08:08:50.332Z,8.98
2023-04-02T08:11:17.674Z,8.19
2023-04-02T08:13:44.837Z,8.48
2023-04-02T08:16:12.279Z,7.93
2023-04-02T08:18:38.997Z,8.65
2023-04-02T08:21:09.641Z,8.67
2023-04-02T08:23:37.127Z,8.28
2023-04-02T08:26:04.367Z,8.31
2023-04-02T08:28:31.210Z,7.82
2023-04-02T08:30:58.120Z,7.43
2023-04-02T08:33:24.877Z,8.04
2023-04-02T08:35:52.888Z,8.17
2023-04-02T08:38:21.471Z,8.45
2023-04-02T08:40:50.322Z,8.73
2023-04-02T08:43:17.391Z,8.23
2023-04-02T08:45:44.548Z,8.86
2023-04-02T08:48:12.069Z,9.02
2023-04-02T08:50:41.020Z,9.33
2023-04-02T08:53:17.404Z,9.69
2023-04-02T08:55:48.300Z,9.26
2023-04-02T08:58:21.616Z,9.28
2023-04-02T09:00:51.859Z,9.35
2023-04-02T09:03:20.106Z,9.21
2023-04-02T09:05:48.152Z,9.66
2023-04-02T09:08:20.607Z,9.17
2023-04-02T09:11:07.704Z,9.69
2023-04-02T09:13:37.782Z,9.80
2023-04-02T09:16:11.761Z,10.00
2023-04-02T09:18:39.203Z,10.07
2023-04-02T09:21:21.234Z,10.42
2023-04-02T09:23:48.090Z,10.58
2023-04-02T09:26:22.215Z,9.73
2023-04-02T09:28:50.092Z,9.10
2023-04-02T09:31:20.239Z,10.49
2023-04-02T09:33:49.553Z,11.70
2023-04-02T09:36:26.220Z,11.94
2023-04-02T09:39:07.437Z,9.79
2023-04-02T09:41:36.872Z,9.09
2023-04-02T09:44:20.565Z,9.59
2023-04-02T09:46:48.209Z,9.92
2023-04-02T09:49:19.417Z,9.15
2023-04-02T09:51:46.434Z,9.57
2023-04-02T09:54:16.782Z,8.73
2023-04-02T09:57:01.014Z,8.36
2023-04-02T09:59:27.789Z,10.45
2023-04-02T10:01:54.292Z,9.58
2023-04-02T10:04:44.263Z,9.43
2023-04-02T10:07:29.728Z,8.91
2023-04-02T10:10:01.606Z,9.20
2023-04-02T10:12:31.345Z,8.51
2023-04-02T10:14:59.762Z,8.51
2023-04-02T10:17:31.397Z,8.57
2023-04-02T10:20:06.617Z,9.26
2023-04-02T10:22:33.555Z,9.54
2023-04-02T10:25:00.702Z,10.32
2023-04-02T10:27:37.996Z,10.24
2023-04-02T10:30:21.163Z,9.77
2023-04-02T10:32:57.174Z,8.76
2023-04-02T10:35:30.238Z,10.27
2023-04-02T10:37:57.884Z,10.21
2023-04-02T10:40:30.515Z,9.59
2023-04-02T10:43:15.922Z,10.15
2023-04-02T10:46:01.416Z,9.45
2023-04-02T10:48:47.679Z,9.83
2023-04-02T10:51:35.703Z,9.59
2023-04-02T10:54:08.125Z,11.80
2023-04-02T10:56:44.437Z,11.15
2023-04-02T10:59:23.886Z,10.06
2023-04-02T11:01:51.917Z,10.52
2023-04-02T11:04:40.156Z,9.43
2023-04-02T11:07:17.890Z,8.73
2023-04-02T11:09:47.494Z,8.21
2023-04-02T11:12:23.381Z,8.00
2023-04-02T11:14:51.020Z,9.01
2023-04-02T11:17:23.688Z,9.69
2023-04-02T11:19:50.426Z,9.40
2023-04-02T11:22:25.437Z,9.75
2023-04-02T11:24:53.602Z,8.66
2023-04-02T11:27:26.488Z,9.45
2023-04-02T11:29:57.719Z,8.15
2023-04-02T11:32:30.372Z,8.02
2023-04-02T11:35:19.719Z,10.02
2023-04-02T11:37:46.166Z,10.16
2023-04-02T11:40:13.819Z,10.57
2023-04-02T11:42:45.165Z,10.50
2023-04-02T11:45:24.121Z,9.31
2023-04-02T11:48:08.366Z,10.27
2023-04-02T11:50:39.764Z,9.32
2023-04-02T11:53:12.729Z,8.76
2023-04-02T11:55:40.995Z,8.66
2023-04-02T11:58:20.752Z,9.24
2023-04-02T12:01:06.025Z,9.42
2023-04-02T12:03:48.470Z,11.59
2023-04-02T12:06:34.436Z,11.45
2023-04-02T12:09:25.194Z,10.55
2023-04-02T12:11:53.180Z,10.02
2023-04-02T12:14:43.897Z,10.21
2023-04-02T12:17:31.125Z,9.81
2023-04-02T12:19:59.398Z,9.30
2023-04-02T12:22:31.431Z,9.98
2023-04-02T12:25:02.714Z,10.08
2023-04-02T12:27:30.428Z,10.45
2023-04-02T12:30:11.502Z,9.77
2023-04-02T12:32:40.065Z,9.23
2023-04-02T12:35:25.387Z,10.17
2023-04-02T12:37:57.584Z,10.55
2023-04-02T12:40:25.678Z,9.34
2023-04-02T12:42:54.089Z,9.10
2023-04-02T12:45:33.298Z,9.65
2023-04-02T12:48:03.781Z,9.27
2023-04-02T12:50:30.835Z,10.39
2023-04-02T12:52:59.538Z,11.31
2023-04-02T12:55:27.636Z,9.25
2023-04-02T12:57:58.297Z,9.73
2023-04-02T13:00:25.838Z,9.14
2023-04-02T13:03:00.066Z,9.27
2023-04-02T13:05:46.150Z,10.21
2023-04-02T13:08:36.543Z,9.27
2023-04-02T13:11:05.192Z,9.48
2023-04-02T13:13:37.492Z,10.20
2023-04-02T13:16:07.948Z,10.22
2023-04-02T13:18:36.694Z,10.51
2023-04-02T13:21:27.683Z,10.90
2023-04-02T13:23:56.043Z,10.98
2023-04-02T13:26:26.031Z,10.22
2023-04-02T13:29:05.884Z,11.20
2023-04-02T13:31:34.161Z,10.95
2023-04-02T13:34:03.752Z,10.75
2023-04-02T13:36:51.179Z,10.57
2023-04-02T13:39:20.655Z,9.77
2023-04-02T13:41:49.873Z,9.95
2023-04-02T13:44:27.733Z,9.56
2023-04-02T13:46:58.151Z,9.90
2023-04-02T13:49:26.492Z,10.04
2023-04-02T13:52:01.072Z,10.57
2023-04-02T13:54:28.535Z,10.72
2023-04-02T13:56:58.654Z,9.44
2023-04-02T13:59:27.842Z,9.25
2023-04-02T14:02:01.708Z,9.64
2023-04-02T14:04:31.233Z,9.05
2023-04-02T14:07:03.152Z,9.38
2023-04-02T14:09:44.325Z,10.47
2023-04-02T14:12:28.720Z,11.70
2023-04-02T14:15:15.512Z,10.93
2023-04-02T14:17:59.009Z,9.90
2023-04-02T14:20:28.404Z,9.47
2023-04-02T14:23:10.936Z,9.54
2023-04-02T14:25:53.845Z,9.68
2023-04-02T14:28:42.787Z,10.02
2023-04-02T14:31:16.904Z,10.09
2023-04-02T14:33:49.582Z,9.56
2023-04-02T14:36:55.632Z,9.14
2023-04-02T14:39:22.270Z,9.43
2023-04-02T14:42:22.313Z,9.50
2023-04-02T14:45:00.026Z,9.94
2023-04-02T14:47:48.242Z,9.54
2023-04-02T14:50:24.053Z,10.26
2023-04-02T14:52:53.143Z,9.93
2023-04-02T14:55:29.617Z,9.34
2023-04-02T14:57:56.767Z,9.32
2023-04-02T15:00:38.186Z,9.05
2023-04-02T15:03:23.809Z,9.61
2023-04-02T15:05:57.614Z,9.52
2023-04-02T15:08:27.879Z,9.99
2023-04-02T15:11:00.954Z,10.11
2023-04-02T15:13:39.840Z,8.98
2023-04-02T15:16:22.821Z,9.00
2023-04-02T15:18:53.541Z,9.01
2023-04-02T15:21:23.560Z,9.15
2023-04-02T15:23:54.999Z,9.95
2023-04-02T15:26:31.354Z,10.42
2023-04-02T15:29:29.596Z,9.95
2023-04-02T15:32:21.171Z,9.97
2023-04-02T15:34:58.119Z,8.63
2023-04-02T15:37:30.879Z,8.96
2023-04-02T15:40:09.256Z,9.73
2023-04-02T15:42:57.503Z,9.62
2023-04-02T15:45:28.504Z,9.13
2023-04-02T15:48:15.800Z,8.80
2023-04-02T15:50:52.134Z,8.19
2023-04-02T15:53:35.256Z,9.08
2023-04-02T15:56:14.746Z,8.70
2023-04-02T15:58:57.072Z,9.04
2023-04-02T16:01:39.144Z,9.64
2023-04-02T16:04:19.711Z,9.01
2023-04-02T16:06:59.434Z,8.21
2023-04-02T16:09:39.310Z,8.03
2023-04-02T16:12:13.559Z,8.53
2023-04-02T16:14:42.288Z,7.53
2023-04-02T16:17:24.383Z,8.19
2023-04-02T16:19:57.316Z,8.27
2023-04-02T16:22:30.128Z,8.65
2023-04-02T16:25:01.641Z,7.97
2023-04-02T16:27:45.708Z,8.06
2023-04-02T16:30:33.692Z,7.87
2023-04-02T16:33:11.531Z,7.69
2023-04-02T16:35:57.196Z,7.68
2023-04-02T16:38:38.547Z,7.36
2023-04-02T16:41:28.083Z,7.79
2023-04-02T16:44:24.312Z,7.11
2023-04-02T16:47:09.995Z,7.50
2023-04-02T16:49:43.969Z,7.03
2023-04-02T16:52:15.271Z,6.95
2023-04-02T16:55:01.256Z,7.90
2023-04-02T16:57:48.725Z,7.51
2023-04-02T17:00:37.594Z,8.21
2023-04-02T17:03:11.870Z,7.21
2023-04-02T17:05:59.718Z,7.37
2023-04-02T17:08:32.821Z,8.31
2023-04-02T17:11:08.583Z,7.26
2023-04-02T17:13:45.269Z,7.42
2023-04-02T17:16:23.422Z,7.46
2023-04-02T17:18:53.420Z,7.27
2023-04-02T17:21:24.350Z,7.93
2023-04-02T17:24:11.302Z,7.25
2023-04-02T17:26:40.755Z,7.29
2023-04-02T17:29:12.249Z,6.81
2023-04-02T17:31:44.721Z,6.40
2023-04-02T17:34:24.478Z,6.54
2023-04-02T17:37:00.127Z,7.01
2023-04-02T17:39:48.169Z,6.61
2023-04-02T17:42:26.942Z,6.13
2023-04-02T17:45:02.754Z,6.05
2023-04-02T17:47:36.526Z,6.59
2023-04-02T17:50:25.290Z,6.37
2023-04-02T17:53:16.589Z,6.40
2023-04-02T17:55:45.375Z,6.21
2023-04-02T17:58:31.315Z,6.53
2023-04-02T18:01:11.090Z,6.16
2023-04-02T18:03:47.883Z,6.58
2023-04-02T18:06:39.658Z,5.68
2023-04-02T18:09:27.123Z,6.06
2023-04-02T18:12:26.644Z,5.49
2023-04-02T18:15:06.448Z,5.76
2023-04-02T18:17:53.410Z,6.25
2023-04-02T18:20:21.159Z,5.37
2023-04-02T18:23:09.648Z,5.44
2023-04-02T18:26:19.999Z,5.96
2023-04-02T18:29:09.398Z,6.27
2023-04-02T18:31:54.239Z,6.20
2023-04-02T18:34:44.319Z,6.16
2023-04-02T18:37:40.486Z,5.91
2023-04-02T18:40:34.681Z,5.74
2023-04-02T18:43:23.974Z,5.82
2023-04-02T18:46:36.337Z,6.10
2023-04-02T18:49:13.646Z,6.07
2023-04-02T18:51:42.978Z,6.03
2023-04-02T18:54:16.190Z,6.38
2023-04-02T18:56:45.861Z,5.88
2023-04-02T18:59:18.130Z,6.07
2023-04-02T19:01:50.436Z,5.67
2023-04-02T19:04:27.182Z,5.85
2023-04-02T19:07:00.892Z,5.87
2023-04-02T19:09:33.238Z,5.20
2023-04-02T19:12:01.859Z,5.17
2023-04-02T19:14:29.931Z,5.17
2023-04-02T19:17:16.915Z,5.09
2023-04-02T19:19:51.649Z,5.75
2023-04-02T19:22:41.327Z,5.83
2023-04-02T19:25:34.469Z,5.49
2023-04-02T19:28:17.713Z,6.16
2023-04-02T19:30:45.751Z,5.68
2023-04-02T19:33:20.032Z,5.37
2023-04-02T19:35:56.388Z,5.62
2023-04-02T19:38:26.939Z,5.66
2023-04-02T19:41:07.867Z,5.74
2023-04-02T19:43:37.840Z,5.55
2023-04-02T19:46:05.348Z,5.66
2023-04-02T19:48:47.646Z,5.61
2023-04-02T19:51:18.028Z,5.59
2023-04-02T19:53:46.254Z,6.04
2023-04-02T19:56:23.337Z,5.91
2023-04-02T19:58:58.167Z,6.12
2023-04-02T20:01:26.018Z,6.07
2023-04-02T20:03:56.182Z,5.84
2023-04-02T20:06:23.036Z,5.39
2023-04-02T20:08:51.501Z,5.80
2023-04-02T20:11:18.978Z,5.84
2023-04-02T20:13:46.835Z,5.92
2023-04-02T20:16:14.554Z,5.68
2023-04-02T20:18:41.621Z,5.54
2023-04-02T20:21:09.337Z,5.54
2023-04-02T20:23:36.826Z,5.32
2023-04-02T20:26:05.404Z,5.61
2023-04-02T20:28:32.484Z,5.52
2023-04-02T20:31:15.355Z,5.59
2023-04-02T20:33:43.572Z,5.54
2023-04-02T20:36:11.897Z,5.69
2023-04-02T20:38:39.869Z,5.34
2023-04-02T20:41:15.648Z,5.71
2023-04-02T20:43:44.007Z,5.50
2023-04-02T20:46:14.007Z,5.62
2023-04-02T20:48:46.385Z,5.62
2023-04-02T20:51:15.508Z,5.56
2023-04-02T20:53:48.128Z,5.66
2023-04-02T20:56:17.772Z,5.63
2023-04-02T20:58:51.332Z,5.70
2023-04-02T21:01:20.842Z,5.59
2023-04-02T21:03:48.011Z,5.36
2023-04-02T21:06:17.066Z,5.41
2023-04-02T21:08:45.511Z,5.22
2023-04-02T21:11:13.184Z,5.30
2023-04-02T21:13:43.958Z,5.49
2023-04-02T21:16:16.728Z,5.56
2023-04-02T21:18:45.166Z,5.47
2023-04-02T21:21:16.209Z,5.38
2023-04-02T21:23:47.407Z,5.45
2023-04-02T21:26:16.458Z,5.66
2023-04-02T21:28:49.878Z,5.79
2023-04-02T21:31:18.083Z,5.89
2023-04-02T21:33:46.718Z,5.64
2023-04-02T21:36:19.685Z,5.36
2023-04-02T21:38:51.776Z,5.36
2023-04-02T21:41:26.803Z,5.36
2023-04-02T21:43:56.648Z,5.26
2023-04-02T21:46:25.939Z,4.81
2023-04-02T21:48:54.965Z,4.21
2023-04-02T21:51:22.920Z,4.35
2023-04-02T21:53:54.318Z,4.57
2023-04-02T21:56:22.748Z,4.89
2023-04-02T21:58:51.700Z,4.82
2023-04-02T22:01:27.187Z,4.57
2023-04-02T22:03:54.835Z,5.12
2023-04-02T22:06:22.372Z,5.29
2023-04-02T22:09:13.760Z,5.34
2023-04-02T22:11:46.776Z,4.92
2023-04-02T22:14:14.816Z,5.07
2023-04-02T22:16:43.679Z,5.23
2023-04-02T22:19:13.557Z,4.81
2023-04-02T22:21:41.721Z,5.20
2023-04-02T22:24:10.113Z,5.01
2023-04-02T22:26:37.783Z,5.03
2023-04-02T22:29:05.914Z,4.93
2023-04-02T22:31:36.088Z,4.98
2023-04-02T22:34:04.985Z,5.01
2023-04-02T22:36:42.459Z,5.09
2023-04-02T22:39:12.669Z,5.11
2023-04-02T22:41:40.418Z,4.99
2023-04-02T22:44:07.481Z,5.03
2023-04-02T22:46:35.823Z,4.89
2023-04-02T22:49:03.385Z,5.04
2023-04-02T22:51:30.864Z,4.66
2023-04-02T22:53:58.658Z,4.72
2023-04-02T22:56:32.787Z,4.58
2023-04-02T22:59:00.644Z,4.38
2023-04-02T23:01:33.257Z,4.58
2023-04-02T23:04:01.626Z,4.63
2023-04-02T23:06:29.938Z,4.54
2023-04-02T23:09:01.872Z,4.42
2023-04-02T23:11:28.391Z,4.39
2023-04-02T23:13:56.308Z,4.29
2023-04-02T23:16:25.735Z,4.36
2023-04-02T23:18:55.267Z,4.22
2023-04-02T23:21:22.108Z,4.34
2023-04-02T23:23:51.120Z,4.35
2023-04-02T23:26:21.759Z,4.35
2023-04-02T23:28:50.577Z,4.25
2023-04-02T23:31:20.268Z,4.14
2023-04-02T23:33:47.198Z,4.17
2023-04-02T23:36:18.156Z,4.31
2023-04-02T23:38:44.908Z,4.33
2023-04-02T23:41:15.179Z,4.22
2023-04-02T23:43:43.444Z,4.22
2023-04-02T23:46:10.336Z,4.25
2023-04-02T23:48:39.733Z,4.33
2023-04-02T23:51:09.771Z,4.31
2023-04-02T23:53:38.214Z,4.19
2023-04-02T23:56:07.329Z,4.15
2023-04-02T23:58:34.565Z,4.03
